Aeroporto :
LOGIN :

Iscrizione | Disclaimer

   EN    FR    IT 

 










Sommario :    VFR   VFR Marginale   IFR   IFR Intensivo   IFR Molto Intensivo
Visibilità : 
Base nubi : 
>= 8 km
>= 3000ft
5 / 8 km
1000 / 3000 ft
1500m / 5 km
500 / 1000 ft
800 / 1500m
200 / 500 ft
< 800m
< 200 ft
Simboli :   Temporali  Nebbia  Neve Forte  Precipitazioni Forti  Vento > 20 kt
SIGMETs :   Varie  Temporali  Ghiacco  Turbolenza  Onda orograficha  Ceneri Vulcaniche






- Altitudine del aeroporto : 106 ft
- Codice IATA : NRN


EDLV - Weeze

ULTIMO METAR :
  • 151150Z 22014KT 9999 FEW029 09/04 Q1000

METARs OBSOLETI :
  • 151120Z 23015KT CAVOK 09/04 Q0999
  • 151050Z 22012KT CAVOK 09/03 Q0999
  • 151020Z 23013KT 200V260 CAVOK 09/02 Q0999
  • 150950Z 23014KT CAVOK 08/02 Q0998
  • 150920Z 24014KT CAVOK 08/02 Q0998

TAF TAF EDLV
Valido dal 15 a 12 ore il 16 a 12 ore UTC


151100Z 1512/1612 24015KT CAVOK
TEMPO 1512/1514 24015G25KT
BECMG 1517/1520 17010KT
BECMG 1601/1603 17005KT



MetMap, La meteo Aeronautica in un colpo d'occhio ! - Copyright ORBIFLY Dicembre 2007 - Disclaimer

ORBIFLY MET'MAP TEAM :

Programmazione e sviluppo : Alexandra Zaïnal
Concezione : Baudouin d'Aumeries
Aiuto per la programmazione : Marc-Olivier Méhu
Supporto tecnico e logistico : Manuel Goepfert
Aiuto per la traduzione : Arnaldo La Scala

Contatto : metmap@orbifly.com




FONTI E CREDITI :

   NOAA